sensor_id;sensor_type;location;lat;lon;timestamp;P1;durP1;ratioP1;P2;durP2;ratioP2
67092;SDS011;54011;50.772;7.730;2023-03-23T00:01:53;4.57;;;1.80;;
67092;SDS011;54011;50.772;7.730;2023-03-23T00:04:18;5.32;;;1.88;;
67092;SDS011;54011;50.772;7.730;2023-03-23T00:06:47;4.55;;;1.63;;
67092;SDS011;54011;50.772;7.730;2023-03-23T00:09:14;5.03;;;1.52;;
67092;SDS011;54011;50.772;7.730;2023-03-23T00:11:43;4.22;;;1.30;;
67092;SDS011;54011;50.772;7.730;2023-03-23T00:14:09;3.25;;;1.27;;
67092;SDS011;54011;50.772;7.730;2023-03-23T00:16:38;4.20;;;1.40;;
67092;SDS011;54011;50.772;7.730;2023-03-23T00:19:15;4.68;;;1.70;;
67092;SDS011;54011;50.772;7.730;2023-03-23T00:21:42;6.05;;;1.75;;
67092;SDS011;54011;50.772;7.730;2023-03-23T00:24:09;4.18;;;1.60;;
67092;SDS011;54011;50.772;7.730;2023-03-23T00:26:36;3.65;;;1.40;;
67092;SDS011;54011;50.772;7.730;2023-03-23T00:29:16;3.53;;;1.45;;
67092;SDS011;54011;50.772;7.730;2023-03-23T00:31:44;3.58;;;1.27;;
67092;SDS011;54011;50.772;7.730;2023-03-23T00:34:14;6.70;;;1.75;;
67092;SDS011;54011;50.772;7.730;2023-03-23T00:36:45;5.25;;;1.70;;
67092;SDS011;54011;50.772;7.730;2023-03-23T00:39:12;4.20;;;1.50;;
67092;SDS011;54011;50.772;7.730;2023-03-23T00:41:39;3.67;;;1.40;;
67092;SDS011;54011;50.772;7.730;2023-03-23T00:44:05;6.50;;;1.58;;
67092;SDS011;54011;50.772;7.730;2023-03-23T00:46:33;5.00;;;1.40;;
67092;SDS011;54011;50.772;7.730;2023-03-23T00:49:01;5.22;;;1.45;;
67092;SDS011;54011;50.772;7.730;2023-03-23T00:51:28;3.15;;;1.15;;
67092;SDS011;54011;50.772;7.730;2023-03-23T00:53:53;3.80;;;1.10;;
67092;SDS011;54011;50.772;7.730;2023-03-23T00:56:24;7.32;;;1.80;;
67092;SDS011;54011;50.772;7.730;2023-03-23T00:58:51;4.63;;;1.52;;
67092;SDS011;54011;50.772;7.730;2023-03-23T01:01:17;4.03;;;1.42;;
67092;SDS011;54011;50.772;7.730;2023-03-23T01:03:42;6.72;;;1.52;;
67092;SDS011;54011;50.772;7.730;2023-03-23T01:06:09;2.58;;;1.15;;
67092;SDS011;54011;50.772;7.730;2023-03-23T01:08:38;3.50;;;1.23;;
67092;SDS011;54011;50.772;7.730;2023-03-23T01:11:11;3.50;;;1.40;;
67092;SDS011;54011;50.772;7.730;2023-03-23T01:13:41;2.75;;;1.20;;
67092;SDS011;54011;50.772;7.730;2023-03-23T01:16:08;2.88;;;1.17;;
67092;SDS011;54011;50.772;7.730;2023-03-23T01:18:34;5.15;;;1.33;;
67092;SDS011;54011;50.772;7.730;2023-03-23T01:21:08;3.20;;;1.27;;
67092;SDS011;54011;50.772;7.730;2023-03-23T01:23:39;2.50;;;1.10;;
67092;SDS011;54011;50.772;7.730;2023-03-23T01:26:06;5.78;;;1.30;;
67092;SDS011;54011;50.772;7.730;2023-03-23T01:28:33;2.35;;;1.05;;
67092;SDS011;54011;50.772;7.730;2023-03-23T01:31:03;3.70;;;1.10;;
67092;SDS011;54011;50.772;7.730;2023-03-23T01:33:31;3.70;;;1.40;;
67092;SDS011;54011;50.772;7.730;2023-03-23T01:36:04;2.55;;;1.30;;
67092;SDS011;54011;50.772;7.730;2023-03-23T01:38:32;5.22;;;1.35;;
67092;SDS011;54011;50.772;7.730;2023-03-23T01:41:03;3.58;;;1.20;;
67092;SDS011;54011;50.772;7.730;2023-03-23T01:46:57;3.20;;;1.45;;
67092;SDS011;54011;50.772;7.730;2023-03-23T01:49:24;4.63;;;1.40;;
67092;SDS011;54011;50.772;7.730;2023-03-23T01:52:05;6.72;;;1.67;;
67092;SDS011;54011;50.772;7.730;2023-03-23T01:54:40;3.35;;;1.40;;
67092;SDS011;54011;50.772;7.730;2023-03-23T01:57:07;3.10;;;1.27;;
67092;SDS011;54011;50.772;7.730;2023-03-23T01:59:44;3.35;;;1.33;;
67092;SDS011;54011;50.772;7.730;2023-03-23T02:02:51;6.00;;;1.50;;
67092;SDS011;54011;50.772;7.730;2023-03-23T02:05:29;5.50;;;1.60;;
67092;SDS011;54011;50.772;7.730;2023-03-23T02:08:27;6.40;;;1.95;;
67092;SDS011;54011;50.772;7.730;2023-03-23T02:11:15;5.20;;;1.52;;
67092;SDS011;54011;50.772;7.730;2023-03-23T02:13:43;5.93;;;1.63;;
67092;SDS011;54011;50.772;7.730;2023-03-23T02:19:24;4.65;;;1.45;;
67092;SDS011;54011;50.772;7.730;2023-03-23T02:31:21;3.75;;;1.73;;
67092;SDS011;54011;50.772;7.730;2023-03-23T02:33:39;5.28;;;1.80;;
67092;SDS011;54011;50.772;7.730;2023-03-23T02:38:53;5.80;;;1.98;;
67092;SDS011;54011;50.772;7.730;2023-03-23T02:41:45;4.57;;;1.90;;
67092;SDS011;54011;50.772;7.730;2023-03-23T02:44:19;4.22;;;1.98;;
67092;SDS011;54011;50.772;7.730;2023-03-23T02:47:00;5.60;;;1.77;;
67092;SDS011;54011;50.772;7.730;2023-03-23T02:49:32;3.45;;;1.50;;
67092;SDS011;54011;50.772;7.730;2023-03-23T02:52:13;4.68;;;1.67;;
67092;SDS011;54011;50.772;7.730;2023-03-23T02:54:46;5.22;;;2.05;;
67092;SDS011;54011;50.772;7.730;2023-03-23T02:57:41;6.03;;;1.70;;
67092;SDS011;54011;50.772;7.730;2023-03-23T03:00:17;5.32;;;1.70;;
67092;SDS011;54011;50.772;7.730;2023-03-23T03:02:47;3.60;;;1.67;;
67092;SDS011;54011;50.772;7.730;2023-03-23T03:08:56;5.25;;;1.75;;
67092;SDS011;54011;50.772;7.730;2023-03-23T03:11:50;5.88;;;2.10;;
67092;SDS011;54011;50.772;7.730;2023-03-23T03:14:32;5.28;;;1.80;;
67092;SDS011;54011;50.772;7.730;2023-03-23T03:19:50;4.47;;;1.77;;
67092;SDS011;54011;50.772;7.730;2023-03-23T03:22:43;3.60;;;1.38;;
67092;SDS011;54011;50.772;7.730;2023-03-23T03:25:15;4.57;;;1.70;;
67092;SDS011;54011;50.772;7.730;2023-03-23T03:28:03;3.40;;;1.27;;
67092;SDS011;54011;50.772;7.730;2023-03-23T03:30:41;4.63;;;1.70;;
67092;SDS011;54011;50.772;7.730;2023-03-23T03:33:11;5.45;;;1.67;;
67092;SDS011;54011;50.772;7.730;2023-03-23T03:35:55;3.55;;;1.58;;
67092;SDS011;54011;50.772;7.730;2023-03-23T03:38:23;4.32;;;1.52;;
67092;SDS011;54011;50.772;7.730;2023-03-23T03:40:50;3.50;;;1.60;;
67092;SDS011;54011;50.772;7.730;2023-03-23T03:43:17;3.45;;;1.50;;
67092;SDS011;54011;50.772;7.730;2023-03-23T03:45:43;5.60;;;1.13;;
67092;SDS011;54011;50.772;7.730;2023-03-23T03:48:11;2.80;;;1.25;;
67092;SDS011;54011;50.772;7.730;2023-03-23T03:50:40;4.22;;;1.83;;
67092;SDS011;54011;50.772;7.730;2023-03-23T03:53:09;4.30;;;1.40;;
67092;SDS011;54011;50.772;7.730;2023-03-23T03:55:37;3.47;;;1.50;;
67092;SDS011;54011;50.772;7.730;2023-03-23T03:58:17;5.65;;;1.35;;
67092;SDS011;54011;50.772;7.730;2023-03-23T04:01:07;5.50;;;1.70;;
67092;SDS011;54011;50.772;7.730;2023-03-23T04:03:43;4.72;;;1.60;;
67092;SDS011;54011;50.772;7.730;2023-03-23T04:06:32;3.15;;;1.63;;
67092;SDS011;54011;50.772;7.730;2023-03-23T04:09:08;5.20;;;1.95;;
67092;SDS011;54011;50.772;7.730;2023-03-23T04:12:12;1.90;;;0.85;;
67092;SDS011;54011;50.772;7.730;2023-03-23T04:14:58;4.95;;;1.80;;
67092;SDS011;54011;50.772;7.730;2023-03-23T04:17:39;2.38;;;1.05;;
67092;SDS011;54011;50.772;7.730;2023-03-23T04:20:17;6.20;;;1.70;;
67092;SDS011;54011;50.772;7.730;2023-03-23T04:26:20;6.47;;;1.83;;
67092;SDS011;54011;50.772;7.730;2023-03-23T04:28:59;4.60;;;1.70;;
67092;SDS011;54011;50.772;7.730;2023-03-23T04:31:51;8.57;;;2.00;;
67092;SDS011;54011;50.772;7.730;2023-03-23T04:34:28;4.45;;;1.60;;
67092;SDS011;54011;50.772;7.730;2023-03-23T04:39:27;5.85;;;1.85;;
67092;SDS011;54011;50.772;7.730;2023-03-23T04:41:58;5.25;;;1.80;;
67092;SDS011;54011;50.772;7.730;2023-03-23T04:44:44;4.88;;;1.92;;
67092;SDS011;54011;50.772;7.730;2023-03-23T04:47:30;4.95;;;2.15;;
67092;SDS011;54011;50.772;7.730;2023-03-23T04:50:00;4.97;;;1.80;;
67092;SDS011;54011;50.772;7.730;2023-03-23T04:52:33;3.67;;;1.70;;
67092;SDS011;54011;50.772;7.730;2023-03-23T04:55:03;6.00;;;1.88;;
67092;SDS011;54011;50.772;7.730;2023-03-23T04:57:31;3.95;;;1.60;;
67092;SDS011;54011;50.772;7.730;2023-03-23T05:00:17;5.53;;;2.00;;
67092;SDS011;54011;50.772;7.730;2023-03-23T05:02:48;3.47;;;1.70;;
67092;SDS011;54011;50.772;7.730;2023-03-23T05:05:19;2.95;;;1.45;;
67092;SDS011;54011;50.772;7.730;2023-03-23T05:07:46;5.47;;;1.65;;
67092;SDS011;54011;50.772;7.730;2023-03-23T05:10:15;4.30;;;1.80;;
67092;SDS011;54011;50.772;7.730;2023-03-23T05:12:42;3.60;;;1.63;;
67092;SDS011;54011;50.772;7.730;2023-03-23T05:15:10;4.75;;;2.00;;
67092;SDS011;54011;50.772;7.730;2023-03-23T05:17:37;3.75;;;1.50;;
67092;SDS011;54011;50.772;7.730;2023-03-23T05:20:15;4.93;;;1.95;;
67092;SDS011;54011;50.772;7.730;2023-03-23T05:22:48;3.88;;;1.77;;
67092;SDS011;54011;50.772;7.730;2023-03-23T05:25:16;4.80;;;2.28;;
67092;SDS011;54011;50.772;7.730;2023-03-23T05:27:51;6.03;;;2.00;;
67092;SDS011;54011;50.772;7.730;2023-03-23T05:30:41;5.03;;;1.80;;
67092;SDS011;54011;50.772;7.730;2023-03-23T05:33:09;4.15;;;1.90;;
67092;SDS011;54011;50.772;7.730;2023-03-23T05:35:48;3.75;;;2.03;;
67092;SDS011;54011;50.772;7.730;2023-03-23T05:38:17;3.40;;;1.70;;
67092;SDS011;54011;50.772;7.730;2023-03-23T05:40:45;4.80;;;1.90;;
67092;SDS011;54011;50.772;7.730;2023-03-23T05:43:15;5.13;;;1.90;;
67092;SDS011;54011;50.772;7.730;2023-03-23T05:45:54;5.47;;;2.05;;
67092;SDS011;54011;50.772;7.730;2023-03-23T05:48:20;4.38;;;1.90;;
67092;SDS011;54011;50.772;7.730;2023-03-23T05:50:46;5.38;;;2.10;;
67092;SDS011;54011;50.772;7.730;2023-03-23T05:53:12;3.70;;;2.03;;
67092;SDS011;54011;50.772;7.730;2023-03-23T05:55:39;6.32;;;1.60;;
67092;SDS011;54011;50.772;7.730;2023-03-23T05:58:17;3.30;;;1.70;;
67092;SDS011;54011;50.772;7.730;2023-03-23T06:00:45;3.70;;;1.80;;
67092;SDS011;54011;50.772;7.730;2023-03-23T06:03:25;4.35;;;1.50;;
67092;SDS011;54011;50.772;7.730;2023-03-23T06:06:06;5.40;;;2.05;;
67092;SDS011;54011;50.772;7.730;2023-03-23T06:11:13;3.53;;;1.90;;
67092;SDS011;54011;50.772;7.730;2023-03-23T06:13:50;5.57;;;2.17;;
67092;SDS011;54011;50.772;7.730;2023-03-23T06:16:29;3.92;;;1.50;;
67092;SDS011;54011;50.772;7.730;2023-03-23T06:19:01;2.22;;;1.10;;
67092;SDS011;54011;50.772;7.730;2023-03-23T06:24:03;5.25;;;1.95;;
67092;SDS011;54011;50.772;7.730;2023-03-23T06:26:37;3.30;;;1.70;;
67092;SDS011;54011;50.772;7.730;2023-03-23T06:29:08;4.43;;;1.70;;
67092;SDS011;54011;50.772;7.730;2023-03-23T06:31:40;5.32;;;1.85;;
67092;SDS011;54011;50.772;7.730;2023-03-23T06:34:08;3.60;;;1.48;;
67092;SDS011;54011;50.772;7.730;2023-03-23T06:37:13;3.58;;;1.60;;
67092;SDS011;54011;50.772;7.730;2023-03-23T06:39:50;5.82;;;1.80;;
67092;SDS011;54011;50.772;7.730;2023-03-23T06:42:37;4.20;;;1.98;;
67092;SDS011;54011;50.772;7.730;2023-03-23T06:45:33;4.20;;;1.58;;
67092;SDS011;54011;50.772;7.730;2023-03-23T06:48:31;3.42;;;1.60;;
67092;SDS011;54011;50.772;7.730;2023-03-23T06:50:58;6.10;;;1.75;;
67092;SDS011;54011;50.772;7.730;2023-03-23T06:53:25;4.05;;;1.73;;
67092;SDS011;54011;50.772;7.730;2023-03-23T06:55:54;5.97;;;1.58;;
67092;SDS011;54011;50.772;7.730;2023-03-23T06:58:19;4.43;;;1.80;;
67092;SDS011;54011;50.772;7.730;2023-03-23T07:00:45;3.53;;;1.75;;
67092;SDS011;54011;50.772;7.730;2023-03-23T07:03:13;4.82;;;1.70;;
67092;SDS011;54011;50.772;7.730;2023-03-23T07:05:40;4.40;;;1.80;;
67092;SDS011;54011;50.772;7.730;2023-03-23T07:08:09;6.07;;;1.77;;
67092;SDS011;54011;50.772;7.730;2023-03-23T07:10:46;3.80;;;1.73;;
67092;SDS011;54011;50.772;7.730;2023-03-23T07:13:22;5.25;;;1.70;;
67092;SDS011;54011;50.772;7.730;2023-03-23T07:15:53;2.83;;;1.40;;
67092;SDS011;54011;50.772;7.730;2023-03-23T07:18:19;3.38;;;1.60;;
67092;SDS011;54011;50.772;7.730;2023-03-23T07:20:48;3.42;;;1.45;;
67092;SDS011;54011;50.772;7.730;2023-03-23T07:23:19;2.13;;;0.90;;
67092;SDS011;54011;50.772;7.730;2023-03-23T07:25:53;4.28;;;1.98;;
67092;SDS011;54011;50.772;7.730;2023-03-23T07:28:27;3.90;;;1.65;;
67092;SDS011;54011;50.772;7.730;2023-03-23T07:30:59;5.82;;;1.90;;
67092;SDS011;54011;50.772;7.730;2023-03-23T07:33:25;3.72;;;1.60;;
67092;SDS011;54011;50.772;7.730;2023-03-23T07:35:53;5.68;;;1.63;;
67092;SDS011;54011;50.772;7.730;2023-03-23T07:38:22;3.70;;;1.50;;
67092;SDS011;54011;50.772;7.730;2023-03-23T07:40:51;3.30;;;1.60;;
67092;SDS011;54011;50.772;7.730;2023-03-23T07:43:19;5.45;;;1.80;;
67092;SDS011;54011;50.772;7.730;2023-03-23T07:46:12;3.80;;;1.58;;
67092;SDS011;54011;50.772;7.730;2023-03-23T07:48:50;3.88;;;1.65;;
67092;SDS011;54011;50.772;7.730;2023-03-23T07:51:19;6.18;;;1.60;;
67092;SDS011;54011;50.772;7.730;2023-03-23T07:53:48;4.10;;;1.40;;
67092;SDS011;54011;50.772;7.730;2023-03-23T07:56:36;3.70;;;1.35;;
67092;SDS011;54011;50.772;7.730;2023-03-23T07:59:11;4.18;;;1.60;;
67092;SDS011;54011;50.772;7.730;2023-03-23T08:01:40;3.13;;;1.40;;
67092;SDS011;54011;50.772;7.730;2023-03-23T08:07:22;3.80;;;1.40;;
67092;SDS011;54011;50.772;7.730;2023-03-23T08:10:20;3.75;;;1.65;;
67092;SDS011;54011;50.772;7.730;2023-03-23T08:12:56;3.78;;;1.38;;
67092;SDS011;54011;50.772;7.730;2023-03-23T08:15:41;5.30;;;1.40;;
67092;SDS011;54011;50.772;7.730;2023-03-23T08:18:26;3.95;;;1.60;;
67092;SDS011;54011;50.772;7.730;2023-03-23T08:21:16;4.43;;;1.27;;
67092;SDS011;54011;50.772;7.730;2023-03-23T08:24:00;5.25;;;1.42;;
67092;SDS011;54011;50.772;7.730;2023-03-23T08:26:52;4.18;;;1.50;;
67092;SDS011;54011;50.772;7.730;2023-03-23T08:29:35;4.78;;;1.58;;
67092;SDS011;54011;50.772;7.730;2023-03-23T08:32:19;4.32;;;1.30;;
67092;SDS011;54011;50.772;7.730;2023-03-23T08:35:08;5.45;;;1.60;;
67092;SDS011;54011;50.772;7.730;2023-03-23T08:37:45;3.22;;;1.20;;
67092;SDS011;54011;50.772;7.730;2023-03-23T08:40:35;2.92;;;1.35;;
67092;SDS011;54011;50.772;7.730;2023-03-23T08:43:19;3.92;;;1.40;;
67092;SDS011;54011;50.772;7.730;2023-03-23T08:46:15;4.28;;;1.60;;
67092;SDS011;54011;50.772;7.730;2023-03-23T08:49:09;3.30;;;1.40;;
67092;SDS011;54011;50.772;7.730;2023-03-23T08:52:10;5.45;;;1.10;;
67092;SDS011;54011;50.772;7.730;2023-03-23T08:54:55;4.97;;;1.35;;
67092;SDS011;54011;50.772;7.730;2023-03-23T09:00:22;2.45;;;1.02;;
67092;SDS011;54011;50.772;7.730;2023-03-23T09:03:08;7.40;;;1.63;;
67092;SDS011;54011;50.772;7.730;2023-03-23T09:10:59;4.32;;;1.17;;
67092;SDS011;54011;50.772;7.730;2023-03-23T09:13:28;5.60;;;1.30;;
67092;SDS011;54011;50.772;7.730;2023-03-23T09:15:56;4.70;;;1.70;;
67092;SDS011;54011;50.772;7.730;2023-03-23T09:18:22;4.43;;;1.35;;
67092;SDS011;54011;50.772;7.730;2023-03-23T09:20:49;4.70;;;1.85;;
67092;SDS011;54011;50.772;7.730;2023-03-23T09:23:15;3.92;;;1.48;;
67092;SDS011;54011;50.772;7.730;2023-03-23T09:25:41;3.38;;;1.50;;
67092;SDS011;54011;50.772;7.730;2023-03-23T09:28:12;6.32;;;1.70;;
67092;SDS011;54011;50.772;7.730;2023-03-23T09:30:39;4.30;;;1.58;;
67092;SDS011;54011;50.772;7.730;2023-03-23T09:33:06;3.55;;;1.80;;
67092;SDS011;54011;50.772;7.730;2023-03-23T09:35:35;3.60;;;1.50;;
67092;SDS011;54011;50.772;7.730;2023-03-23T09:38:03;2.75;;;1.23;;
67092;SDS011;54011;50.772;7.730;2023-03-23T09:40:36;3.45;;;1.25;;
67092;SDS011;54011;50.772;7.730;2023-03-23T09:43:25;4.38;;;1.67;;
67092;SDS011;54011;50.772;7.730;2023-03-23T09:48:56;4.75;;;1.50;;
67092;SDS011;54011;50.772;7.730;2023-03-23T09:53:55;6.18;;;1.77;;
67092;SDS011;54011;50.772;7.730;2023-03-23T09:56:27;5.85;;;1.83;;
67092;SDS011;54011;50.772;7.730;2023-03-23T09:59:00;3.30;;;1.63;;
67092;SDS011;54011;50.772;7.730;2023-03-23T10:04:12;6.07;;;1.80;;
67092;SDS011;54011;50.772;7.730;2023-03-23T10:07:23;4.88;;;1.55;;
67092;SDS011;54011;50.772;7.730;2023-03-23T10:09:58;4.22;;;1.42;;
67092;SDS011;54011;50.772;7.730;2023-03-23T10:15:28;5.22;;;1.70;;
67092;SDS011;54011;50.772;7.730;2023-03-23T10:18:04;3.80;;;1.50;;
67092;SDS011;54011;50.772;7.730;2023-03-23T10:20:50;3.78;;;1.45;;
67092;SDS011;54011;50.772;7.730;2023-03-23T10:23:45;3.75;;;1.38;;
67092;SDS011;54011;50.772;7.730;2023-03-23T10:29:22;3.33;;;1.20;;
67092;SDS011;54011;50.772;7.730;2023-03-23T10:31:58;3.40;;;1.40;;
67092;SDS011;54011;50.772;7.730;2023-03-23T10:34:32;8.15;;;1.20;;
67092;SDS011;54011;50.772;7.730;2023-03-23T10:37:29;5.32;;;1.08;;
67092;SDS011;54011;50.772;7.730;2023-03-23T10:40:00;2.63;;;0.80;;
67092;SDS011;54011;50.772;7.730;2023-03-23T10:42:33;4.32;;;1.15;;
67092;SDS011;54011;50.772;7.730;2023-03-23T10:45:10;4.00;;;1.15;;
67092;SDS011;54011;50.772;7.730;2023-03-23T10:47:54;3.20;;;1.00;;
67092;SDS011;54011;50.772;7.730;2023-03-23T10:50:25;2.88;;;1.00;;
67092;SDS011;54011;50.772;7.730;2023-03-23T10:52:56;3.00;;;1.08;;
67092;SDS011;54011;50.772;7.730;2023-03-23T10:55:24;1.90;;;0.80;;
67092;SDS011;54011;50.772;7.730;2023-03-23T10:58:42;2.17;;;0.80;;
67092;SDS011;54011;50.772;7.730;2023-03-23T11:00:49;2.70;;;1.02;;
67092;SDS011;54011;50.772;7.730;2023-03-23T11:06:11;2.65;;;0.90;;
67092;SDS011;54011;50.772;7.730;2023-03-23T11:11:41;2.40;;;0.80;;
67092;SDS011;54011;50.772;7.730;2023-03-23T11:14:15;2.58;;;0.85;;
67092;SDS011;54011;50.772;7.730;2023-03-23T11:16:56;3.33;;;0.88;;
67092;SDS011;54011;50.772;7.730;2023-03-23T11:19:34;4.53;;;1.00;;
67092;SDS011;54011;50.772;7.730;2023-03-23T11:24:34;2.40;;;0.95;;
67092;SDS011;54011;50.772;7.730;2023-03-23T11:27:06;3.03;;;0.80;;
67092;SDS011;54011;50.772;7.730;2023-03-23T11:29:34;2.25;;;0.82;;
67092;SDS011;54011;50.772;7.730;2023-03-23T11:32:02;2.88;;;0.70;;
67092;SDS011;54011;50.772;7.730;2023-03-23T11:34:33;2.42;;;0.90;;
67092;SDS011;54011;50.772;7.730;2023-03-23T11:37:09;4.93;;;1.00;;
67092;SDS011;54011;50.772;7.730;2023-03-23T11:50:59;2.85;;;0.70;;
67092;SDS011;54011;50.772;7.730;2023-03-23T11:53:47;3.58;;;0.80;;
67092;SDS011;54011;50.772;7.730;2023-03-23T11:56:23;1.80;;;0.77;;
67092;SDS011;54011;50.772;7.730;2023-03-23T11:58:50;2.40;;;0.82;;
67092;SDS011;54011;50.772;7.730;2023-03-23T12:05:18;4.05;;;0.80;;
67092;SDS011;54011;50.772;7.730;2023-03-23T12:12:56;2.25;;;0.70;;
67092;SDS011;54011;50.772;7.730;2023-03-23T12:15:49;3.53;;;0.85;;
67092;SDS011;54011;50.772;7.730;2023-03-23T12:21:17;2.50;;;0.93;;
67092;SDS011;54011;50.772;7.730;2023-03-23T12:23:58;1.95;;;0.70;;
67092;SDS011;54011;50.772;7.730;2023-03-23T12:26:50;4.40;;;0.80;;
67092;SDS011;54011;50.772;7.730;2023-03-23T12:38:07;1.23;;;0.80;;
67092;SDS011;54011;50.772;7.730;2023-03-23T12:41:05;4.60;;;1.17;;
67092;SDS011;54011;50.772;7.730;2023-03-23T12:54:29;1.30;;;0.50;;
67092;SDS011;54011;50.772;7.730;2023-03-23T12:57:08;4.47;;;0.75;;
67092;SDS011;54011;50.772;7.730;2023-03-23T12:59:54;2.83;;;0.80;;
67092;SDS011;54011;50.772;7.730;2023-03-23T13:02:41;1.00;;;0.47;;
67092;SDS011;54011;50.772;7.730;2023-03-23T13:07:57;2.05;;;0.70;;
67092;SDS011;54011;50.772;7.730;2023-03-23T13:10:28;2.33;;;0.70;;
67092;SDS011;54011;50.772;7.730;2023-03-23T13:12:58;3.00;;;0.80;;
67092;SDS011;54011;50.772;7.730;2023-03-23T13:15:27;4.68;;;1.00;;
67092;SDS011;54011;50.772;7.730;2023-03-23T13:18:08;1.83;;;0.65;;
67092;SDS011;54011;50.772;7.730;2023-03-23T13:23:55;1.50;;;0.60;;
67092;SDS011;54011;50.772;7.730;2023-03-23T13:26:23;4.00;;;1.00;;
67092;SDS011;54011;50.772;7.730;2023-03-23T13:28:55;5.10;;;1.17;;
67092;SDS011;54011;50.772;7.730;2023-03-23T13:31:39;3.35;;;1.17;;
67092;SDS011;54011;50.772;7.730;2023-03-23T13:34:11;1.10;;;0.60;;
67092;SDS011;54011;50.772;7.730;2023-03-23T13:36:42;3.55;;;1.15;;
67092;SDS011;54011;50.772;7.730;2023-03-23T13:39:27;3.65;;;0.90;;
67092;SDS011;54011;50.772;7.730;2023-03-23T13:49:58;3.70;;;1.30;;
67092;SDS011;54011;50.772;7.730;2023-03-23T13:57:54;2.00;;;0.60;;
67092;SDS011;54011;50.772;7.730;2023-03-23T14:00:45;2.63;;;0.90;;
67092;SDS011;54011;50.772;7.730;2023-03-23T14:03:26;2.55;;;0.90;;
67092;SDS011;54011;50.772;7.730;2023-03-23T14:06:12;4.28;;;1.00;;
67092;SDS011;54011;50.772;7.730;2023-03-23T14:09:03;2.45;;;0.90;;
67092;SDS011;54011;50.772;7.730;2023-03-23T14:11:31;3.67;;;0.93;;
67092;SDS011;54011;50.772;7.730;2023-03-23T14:16:50;2.10;;;0.90;;
67092;SDS011;54011;50.772;7.730;2023-03-23T14:19:22;1.98;;;0.80;;
67092;SDS011;54011;50.772;7.730;2023-03-23T14:21:51;3.75;;;1.00;;
67092;SDS011;54011;50.772;7.730;2023-03-23T14:24:21;2.42;;;0.80;;
67092;SDS011;54011;50.772;7.730;2023-03-23T14:27:10;3.50;;;1.10;;
67092;SDS011;54011;50.772;7.730;2023-03-23T14:29:39;4.35;;;1.30;;
67092;SDS011;54011;50.772;7.730;2023-03-23T14:32:06;2.80;;;0.93;;
67092;SDS011;54011;50.772;7.730;2023-03-23T14:34:47;3.08;;;1.00;;
67092;SDS011;54011;50.772;7.730;2023-03-23T14:37:14;2.80;;;0.98;;
67092;SDS011;54011;50.772;7.730;2023-03-23T14:39:43;2.58;;;0.88;;
67092;SDS011;54011;50.772;7.730;2023-03-23T14:42:11;2.75;;;0.95;;
67092;SDS011;54011;50.772;7.730;2023-03-23T14:44:40;2.45;;;0.90;;
67092;SDS011;54011;50.772;7.730;2023-03-23T14:47:16;6.63;;;1.08;;
67092;SDS011;54011;50.772;7.730;2023-03-23T14:49:45;4.88;;;1.00;;
67092;SDS011;54011;50.772;7.730;2023-03-23T14:52:16;2.97;;;1.08;;
67092;SDS011;54011;50.772;7.730;2023-03-23T14:54:43;4.07;;;1.10;;
67092;SDS011;54011;50.772;7.730;2023-03-23T14:57:14;2.63;;;0.90;;
67092;SDS011;54011;50.772;7.730;2023-03-23T14:59:43;3.67;;;1.00;;
67092;SDS011;54011;50.772;7.730;2023-03-23T15:02:13;3.33;;;0.80;;
67092;SDS011;54011;50.772;7.730;2023-03-23T15:04:56;4.85;;;0.98;;
67092;SDS011;54011;50.772;7.730;2023-03-23T15:07:30;3.03;;;1.10;;
67092;SDS011;54011;50.772;7.730;2023-03-23T15:10:14;2.25;;;0.80;;
67092;SDS011;54011;50.772;7.730;2023-03-23T15:12:43;2.80;;;1.00;;
67092;SDS011;54011;50.772;7.730;2023-03-23T15:15:22;4.15;;;1.08;;
67092;SDS011;54011;50.772;7.730;2023-03-23T15:17:51;2.17;;;0.73;;
67092;SDS011;54011;50.772;7.730;2023-03-23T15:23:14;4.65;;;1.27;;
67092;SDS011;54011;50.772;7.730;2023-03-23T15:25:47;3.42;;;1.00;;
67092;SDS011;54011;50.772;7.730;2023-03-23T15:28:17;3.22;;;1.00;;
67092;SDS011;54011;50.772;7.730;2023-03-23T15:30:46;4.43;;;1.13;;
67092;SDS011;54011;50.772;7.730;2023-03-23T15:33:14;1.52;;;0.70;;
67092;SDS011;54011;50.772;7.730;2023-03-23T15:35:47;3.75;;;1.08;;
67092;SDS011;54011;50.772;7.730;2023-03-23T15:38:28;4.30;;;1.20;;
67092;SDS011;54011;50.772;7.730;2023-03-23T15:40:58;5.00;;;1.30;;
67092;SDS011;54011;50.772;7.730;2023-03-23T15:43:27;3.27;;;1.03;;
67092;SDS011;54011;50.772;7.730;2023-03-23T15:46:18;2.97;;;1.00;;
67092;SDS011;54011;50.772;7.730;2023-03-23T15:48:47;5.25;;;1.10;;
67092;SDS011;54011;50.772;7.730;2023-03-23T15:51:20;5.22;;;1.30;;
67092;SDS011;54011;50.772;7.730;2023-03-23T15:53:48;3.92;;;1.10;;
67092;SDS011;54011;50.772;7.730;2023-03-23T15:56:15;4.07;;;1.20;;
67092;SDS011;54011;50.772;7.730;2023-03-23T15:58:42;3.50;;;1.00;;
67092;SDS011;54011;50.772;7.730;2023-03-23T16:01:11;3.88;;;1.10;;
67092;SDS011;54011;50.772;7.730;2023-03-23T16:03:49;3.90;;;1.20;;
67092;SDS011;54011;50.772;7.730;2023-03-23T16:06:21;2.35;;;0.93;;
67092;SDS011;54011;50.772;7.730;2023-03-23T16:08:50;3.45;;;1.10;;
67092;SDS011;54011;50.772;7.730;2023-03-23T16:11:16;7.57;;;1.10;;
67092;SDS011;54011;50.772;7.730;2023-03-23T16:13:43;3.00;;;0.90;;
67092;SDS011;54011;50.772;7.730;2023-03-23T16:16:15;4.93;;;1.10;;
67092;SDS011;54011;50.772;7.730;2023-03-23T16:18:43;5.13;;;1.42;;
67092;SDS011;54011;50.772;7.730;2023-03-23T16:21:09;3.88;;;1.17;;
67092;SDS011;54011;50.772;7.730;2023-03-23T16:23:36;3.33;;;0.95;;
67092;SDS011;54011;50.772;7.730;2023-03-23T16:26:10;5.10;;;1.20;;
67092;SDS011;54011;50.772;7.730;2023-03-23T16:28:36;2.92;;;1.10;;
67092;SDS011;54011;50.772;7.730;2023-03-23T16:31:02;3.70;;;1.20;;
67092;SDS011;54011;50.772;7.730;2023-03-23T16:33:30;7.88;;;1.42;;
67092;SDS011;54011;50.772;7.730;2023-03-23T16:35:55;2.92;;;1.20;;
67092;SDS011;54011;50.772;7.730;2023-03-23T16:38:22;3.60;;;1.35;;
67092;SDS011;54011;50.772;7.730;2023-03-23T16:40:48;6.47;;;1.40;;
67092;SDS011;54011;50.772;7.730;2023-03-23T16:43:14;4.28;;;1.20;;
67092;SDS011;54011;50.772;7.730;2023-03-23T16:45:41;5.88;;;1.30;;
67092;SDS011;54011;50.772;7.730;2023-03-23T16:48:10;6.15;;;1.35;;
67092;SDS011;54011;50.772;7.730;2023-03-23T16:50:36;3.70;;;1.30;;
67092;SDS011;54011;50.772;7.730;2023-03-23T16:53:03;5.63;;;1.35;;
67092;SDS011;54011;50.772;7.730;2023-03-23T16:55:31;5.68;;;1.50;;
67092;SDS011;54011;50.772;7.730;2023-03-23T16:57:56;5.30;;;1.48;;
67092;SDS011;54011;50.772;7.730;2023-03-23T17:00:23;4.43;;;1.33;;
67092;SDS011;54011;50.772;7.730;2023-03-23T17:02:51;5.43;;;1.58;;
67092;SDS011;54011;50.772;7.730;2023-03-23T17:05:21;5.00;;;1.23;;
67092;SDS011;54011;50.772;7.730;2023-03-23T17:07:48;5.55;;;1.50;;
67092;SDS011;54011;50.772;7.730;2023-03-23T17:10:14;5.00;;;1.42;;
67092;SDS011;54011;50.772;7.730;2023-03-23T17:12:48;5.10;;;1.45;;
67092;SDS011;54011;50.772;7.730;2023-03-23T17:15:13;3.92;;;1.50;;
67092;SDS011;54011;50.772;7.730;2023-03-23T17:17:39;4.28;;;1.40;;
67092;SDS011;54011;50.772;7.730;2023-03-23T17:20:08;7.65;;;1.70;;
67092;SDS011;54011;50.772;7.730;2023-03-23T17:22:35;5.43;;;1.58;;
67092;SDS011;54011;50.772;7.730;2023-03-23T17:25:01;6.97;;;1.65;;
67092;SDS011;54011;50.772;7.730;2023-03-23T17:27:28;8.63;;;1.75;;
67092;SDS011;54011;50.772;7.730;2023-03-23T17:29:54;8.05;;;1.80;;
67092;SDS011;54011;50.772;7.730;2023-03-23T17:32:22;3.55;;;1.63;;
67092;SDS011;54011;50.772;7.730;2023-03-23T17:34:49;5.45;;;1.35;;
67092;SDS011;54011;50.772;7.730;2023-03-23T17:37:15;4.88;;;1.80;;
67092;SDS011;54011;50.772;7.730;2023-03-23T17:39:41;4.80;;;1.52;;
67092;SDS011;54011;50.772;7.730;2023-03-23T17:42:07;4.82;;;1.30;;
67092;SDS011;54011;50.772;7.730;2023-03-23T17:44:32;7.45;;;1.70;;
67092;SDS011;54011;50.772;7.730;2023-03-23T17:47:01;4.20;;;1.42;;